sensor_id;sensor_type;location;lat;lon;timestamp;P1;durP1;ratioP1;P2;durP2;ratioP2
25559;SDS011;13450;49.374;8.584;2023-01-24T00:00:08;10.70;;;3.92;;
25559;SDS011;13450;49.374;8.584;2023-01-24T00:02:35;8.68;;;3.83;;
25559;SDS011;13450;49.374;8.584;2023-01-24T00:05:01;8.57;;;3.28;;
25559;SDS011;13450;49.374;8.584;2023-01-24T00:07:28;12.15;;;3.90;;
25559;SDS011;13450;49.374;8.584;2023-01-24T00:09:55;9.85;;;3.78;;
25559;SDS011;13450;49.374;8.584;2023-01-24T00:12:21;7.28;;;3.35;;
25559;SDS011;13450;49.374;8.584;2023-01-24T00:14:46;7.47;;;3.42;;
25559;SDS011;13450;49.374;8.584;2023-01-24T00:17:12;11.63;;;3.90;;
25559;SDS011;13450;49.374;8.584;2023-01-24T00:19:39;9.18;;;3.38;;
25559;SDS011;13450;49.374;8.584;2023-01-24T00:22:05;10.30;;;3.50;;
25559;SDS011;13450;49.374;8.584;2023-01-24T00:24:32;8.70;;;3.25;;
25559;SDS011;13450;49.374;8.584;2023-01-24T00:27:01;11.98;;;3.50;;
25559;SDS011;13450;49.374;8.584;2023-01-24T00:29:29;8.75;;;3.28;;
25559;SDS011;13450;49.374;8.584;2023-01-24T00:31:54;9.05;;;3.10;;
25559;SDS011;13450;49.374;8.584;2023-01-24T00:34:19;10.80;;;3.75;;
25559;SDS011;13450;49.374;8.584;2023-01-24T00:36:47;8.80;;;3.47;;
25559;SDS011;13450;49.374;8.584;2023-01-24T00:39:13;9.73;;;3.60;;
25559;SDS011;13450;49.374;8.584;2023-01-24T00:41:38;7.32;;;2.90;;
25559;SDS011;13450;49.374;8.584;2023-01-24T00:44:03;7.00;;;2.72;;
25559;SDS011;13450;49.374;8.584;2023-01-24T00:46:29;7.18;;;3.03;;
25559;SDS011;13450;49.374;8.584;2023-01-24T00:48:54;8.40;;;3.15;;
25559;SDS011;13450;49.374;8.584;2023-01-24T00:51:20;8.65;;;3.40;;
25559;SDS011;13450;49.374;8.584;2023-01-24T00:53:45;10.10;;;3.20;;
25559;SDS011;13450;49.374;8.584;2023-01-24T00:56:11;8.82;;;3.40;;
25559;SDS011;13450;49.374;8.584;2023-01-24T00:58:36;8.65;;;3.20;;
25559;SDS011;13450;49.374;8.584;2023-01-24T01:01:01;8.13;;;3.10;;
25559;SDS011;13450;49.374;8.584;2023-01-24T01:03:27;6.03;;;2.40;;
25559;SDS011;13450;49.374;8.584;2023-01-24T01:05:56;8.48;;;3.00;;
25559;SDS011;13450;49.374;8.584;2023-01-24T01:08:30;10.75;;;4.30;;
25559;SDS011;13450;49.374;8.584;2023-01-24T01:10:56;6.90;;;2.58;;
25559;SDS011;13450;49.374;8.584;2023-01-24T01:13:22;8.88;;;3.47;;
25559;SDS011;13450;49.374;8.584;2023-01-24T01:15:47;11.10;;;3.53;;
25559;SDS011;13450;49.374;8.584;2023-01-24T01:18:13;10.15;;;3.45;;
25559;SDS011;13450;49.374;8.584;2023-01-24T01:20:38;7.55;;;3.38;;
25559;SDS011;13450;49.374;8.584;2023-01-24T01:23:03;7.72;;;3.35;;
25559;SDS011;13450;49.374;8.584;2023-01-24T01:25:29;8.85;;;3.45;;
25559;SDS011;13450;49.374;8.584;2023-01-24T01:27:54;7.82;;;3.45;;
25559;SDS011;13450;49.374;8.584;2023-01-24T01:30:19;9.20;;;3.53;;
25559;SDS011;13450;49.374;8.584;2023-01-24T01:32:50;8.73;;;3.08;;
25559;SDS011;13450;49.374;8.584;2023-01-24T01:35:15;8.27;;;3.30;;
25559;SDS011;13450;49.374;8.584;2023-01-24T01:37:40;9.15;;;3.83;;
25559;SDS011;13450;49.374;8.584;2023-01-24T01:40:06;10.95;;;3.53;;
25559;SDS011;13450;49.374;8.584;2023-01-24T01:48:10;10.90;;;3.65;;
25559;SDS011;13450;49.374;8.584;2023-01-24T01:50:50;9.20;;;3.40;;
25559;SDS011;13450;49.374;8.584;2023-01-24T01:53:20;7.72;;;3.33;;
25559;SDS011;13450;49.374;8.584;2023-01-24T01:55:50;9.70;;;3.38;;
25559;SDS011;13450;49.374;8.584;2023-01-24T01:58:22;8.57;;;3.15;;
25559;SDS011;13450;49.374;8.584;2023-01-24T02:00:49;8.73;;;3.47;;
25559;SDS011;13450;49.374;8.584;2023-01-24T02:03:15;7.85;;;3.17;;
25559;SDS011;13450;49.374;8.584;2023-01-24T02:06:15;9.85;;;3.65;;
25559;SDS011;13450;49.374;8.584;2023-01-24T02:08:50;8.90;;;3.45;;
25559;SDS011;13450;49.374;8.584;2023-01-24T02:11:17;9.73;;;3.15;;
25559;SDS011;13450;49.374;8.584;2023-01-24T02:14:01;8.95;;;3.45;;
25559;SDS011;13450;49.374;8.584;2023-01-24T02:16:45;9.65;;;3.53;;
25559;SDS011;13450;49.374;8.584;2023-01-24T02:19:15;8.75;;;3.28;;
25559;SDS011;13450;49.374;8.584;2023-01-24T02:21:49;8.25;;;3.38;;
25559;SDS011;13450;49.374;8.584;2023-01-24T02:24:22;10.27;;;3.90;;
25559;SDS011;13450;49.374;8.584;2023-01-24T02:26:55;10.00;;;3.75;;
25559;SDS011;13450;49.374;8.584;2023-01-24T02:29:22;8.38;;;3.13;;
25559;SDS011;13450;49.374;8.584;2023-01-24T02:32:00;8.57;;;3.30;;
25559;SDS011;13450;49.374;8.584;2023-01-24T02:34:30;8.32;;;3.15;;
25559;SDS011;13450;49.374;8.584;2023-01-24T02:37:00;7.95;;;3.22;;
25559;SDS011;13450;49.374;8.584;2023-01-24T02:42:18;9.00;;;3.20;;
25559;SDS011;13450;49.374;8.584;2023-01-24T02:47:42;8.85;;;3.08;;
25559;SDS011;13450;49.374;8.584;2023-01-24T02:50:10;8.88;;;3.28;;
25559;SDS011;13450;49.374;8.584;2023-01-24T02:52:38;7.88;;;3.08;;
25559;SDS011;13450;49.374;8.584;2023-01-24T02:55:23;10.52;;;3.35;;
25559;SDS011;13450;49.374;8.584;2023-01-24T02:57:49;10.23;;;3.65;;
25559;SDS011;13450;49.374;8.584;2023-01-24T03:00:37;8.70;;;3.17;;
25559;SDS011;13450;49.374;8.584;2023-01-24T03:03:07;8.98;;;3.17;;
25559;SDS011;13450;49.374;8.584;2023-01-24T03:05:34;8.38;;;3.58;;
25559;SDS011;13450;49.374;8.584;2023-01-24T03:08:21;7.80;;;2.88;;
25559;SDS011;13450;49.374;8.584;2023-01-24T03:10:47;9.43;;;3.40;;
25559;SDS011;13450;49.374;8.584;2023-01-24T03:13:15;8.05;;;3.25;;
25559;SDS011;13450;49.374;8.584;2023-01-24T03:16:01;8.65;;;3.10;;
25559;SDS011;13450;49.374;8.584;2023-01-24T03:18:45;7.90;;;3.28;;
25559;SDS011;13450;49.374;8.584;2023-01-24T03:21:29;8.00;;;3.22;;
25559;SDS011;13450;49.374;8.584;2023-01-24T03:24:13;6.90;;;2.90;;
25559;SDS011;13450;49.374;8.584;2023-01-24T03:26:57;9.13;;;3.35;;
25559;SDS011;13450;49.374;8.584;2023-01-24T03:29:41;8.05;;;3.03;;
25559;SDS011;13450;49.374;8.584;2023-01-24T03:32:25;8.30;;;3.30;;
25559;SDS011;13450;49.374;8.584;2023-01-24T03:35:09;7.38;;;2.90;;
25559;SDS011;13450;49.374;8.584;2023-01-24T03:37:34;7.38;;;3.08;;
25559;SDS011;13450;49.374;8.584;2023-01-24T03:40:18;8.82;;;3.13;;
25559;SDS011;13450;49.374;8.584;2023-01-24T03:42:43;8.68;;;2.97;;
25559;SDS011;13450;49.374;8.584;2023-01-24T03:45:16;7.07;;;3.00;;
25559;SDS011;13450;49.374;8.584;2023-01-24T03:50:37;8.90;;;3.22;;
25559;SDS011;13450;49.374;8.584;2023-01-24T03:53:24;8.63;;;3.42;;
25559;SDS011;13450;49.374;8.584;2023-01-24T03:55:58;7.90;;;3.20;;
25559;SDS011;13450;49.374;8.584;2023-01-24T03:58:25;7.10;;;2.65;;
25559;SDS011;13450;49.374;8.584;2023-01-24T04:00:54;8.45;;;3.45;;
25559;SDS011;13450;49.374;8.584;2023-01-24T04:03:20;6.82;;;2.90;;
25559;SDS011;13450;49.374;8.584;2023-01-24T04:05:49;8.15;;;2.78;;
25559;SDS011;13450;49.374;8.584;2023-01-24T04:08:16;7.55;;;3.08;;
25559;SDS011;13450;49.374;8.584;2023-01-24T04:10:42;10.18;;;3.67;;
25559;SDS011;13450;49.374;8.584;2023-01-24T04:13:08;9.05;;;3.58;;
25559;SDS011;13450;49.374;8.584;2023-01-24T04:15:34;9.65;;;3.40;;
25559;SDS011;13450;49.374;8.584;2023-01-24T04:18:02;8.85;;;3.42;;
25559;SDS011;13450;49.374;8.584;2023-01-24T04:20:29;8.45;;;3.25;;
25559;SDS011;13450;49.374;8.584;2023-01-24T04:22:56;9.20;;;3.03;;
25559;SDS011;13450;49.374;8.584;2023-01-24T04:25:21;9.88;;;3.55;;
25559;SDS011;13450;49.374;8.584;2023-01-24T04:27:47;7.07;;;3.08;;
25559;SDS011;13450;49.374;8.584;2023-01-24T04:30:13;8.02;;;2.95;;
25559;SDS011;13450;49.374;8.584;2023-01-24T04:32:40;8.43;;;3.30;;
25559;SDS011;13450;49.374;8.584;2023-01-24T04:35:06;7.82;;;3.13;;
25559;SDS011;13450;49.374;8.584;2023-01-24T04:37:32;11.20;;;3.97;;
25559;SDS011;13450;49.374;8.584;2023-01-24T04:39:58;11.35;;;4.60;;
25559;SDS011;13450;49.374;8.584;2023-01-24T04:42:25;8.77;;;3.83;;
25559;SDS011;13450;49.374;8.584;2023-01-24T04:44:53;9.80;;;3.42;;
25559;SDS011;13450;49.374;8.584;2023-01-24T04:47:20;8.95;;;3.33;;
25559;SDS011;13450;49.374;8.584;2023-01-24T04:49:46;8.25;;;3.08;;
25559;SDS011;13450;49.374;8.584;2023-01-24T04:52:12;9.55;;;3.42;;
25559;SDS011;13450;49.374;8.584;2023-01-24T04:54:40;8.98;;;2.83;;
25559;SDS011;13450;49.374;8.584;2023-01-24T04:57:06;8.07;;;3.20;;
25559;SDS011;13450;49.374;8.584;2023-01-24T04:59:34;7.35;;;2.88;;
25559;SDS011;13450;49.374;8.584;2023-01-24T05:01:59;8.52;;;2.95;;
25559;SDS011;13450;49.374;8.584;2023-01-24T05:04:27;8.40;;;3.17;;
25559;SDS011;13450;49.374;8.584;2023-01-24T05:06:52;9.80;;;3.28;;
25559;SDS011;13450;49.374;8.584;2023-01-24T05:09:21;9.90;;;3.30;;
25559;SDS011;13450;49.374;8.584;2023-01-24T05:11:47;8.75;;;3.33;;
25559;SDS011;13450;49.374;8.584;2023-01-24T05:14:12;7.78;;;3.20;;
25559;SDS011;13450;49.374;8.584;2023-01-24T05:16:37;8.07;;;3.15;;
25559;SDS011;13450;49.374;8.584;2023-01-24T05:19:03;9.82;;;3.22;;
25559;SDS011;13450;49.374;8.584;2023-01-24T05:21:30;10.90;;;3.40;;
25559;SDS011;13450;49.374;8.584;2023-01-24T05:23:55;10.55;;;3.75;;
25559;SDS011;13450;49.374;8.584;2023-01-24T05:26:22;9.73;;;3.90;;
25559;SDS011;13450;49.374;8.584;2023-01-24T05:28:48;11.20;;;3.70;;
25559;SDS011;13450;49.374;8.584;2023-01-24T05:31:20;10.18;;;3.35;;
25559;SDS011;13450;49.374;8.584;2023-01-24T05:33:46;9.82;;;3.75;;
25559;SDS011;13450;49.374;8.584;2023-01-24T05:36:14;10.27;;;3.63;;
25559;SDS011;13450;49.374;8.584;2023-01-24T05:38:43;7.72;;;2.88;;
25559;SDS011;13450;49.374;8.584;2023-01-24T05:41:10;10.10;;;3.35;;
25559;SDS011;13450;49.374;8.584;2023-01-24T05:43:37;9.60;;;3.28;;
25559;SDS011;13450;49.374;8.584;2023-01-24T05:46:07;6.20;;;2.58;;
25559;SDS011;13450;49.374;8.584;2023-01-24T05:48:35;5.90;;;2.40;;
25559;SDS011;13450;49.374;8.584;2023-01-24T05:51:05;6.75;;;2.88;;
25559;SDS011;13450;49.374;8.584;2023-01-24T05:53:33;10.65;;;3.50;;
25559;SDS011;13450;49.374;8.584;2023-01-24T05:56:01;7.53;;;2.95;;
25559;SDS011;13450;49.374;8.584;2023-01-24T05:58:29;11.52;;;4.45;;
25559;SDS011;13450;49.374;8.584;2023-01-24T06:01:00;8.98;;;3.65;;
25559;SDS011;13450;49.374;8.584;2023-01-24T06:03:30;12.23;;;3.80;;
25559;SDS011;13450;49.374;8.584;2023-01-24T06:05:56;13.25;;;4.35;;
25559;SDS011;13450;49.374;8.584;2023-01-24T06:08:21;10.65;;;3.85;;
25559;SDS011;13450;49.374;8.584;2023-01-24T06:10:47;7.50;;;2.88;;
25559;SDS011;13450;49.374;8.584;2023-01-24T06:13:13;8.20;;;3.40;;
25559;SDS011;13450;49.374;8.584;2023-01-24T06:15:39;9.68;;;3.40;;
25559;SDS011;13450;49.374;8.584;2023-01-24T06:18:09;10.60;;;3.28;;
25559;SDS011;13450;49.374;8.584;2023-01-24T06:20:38;15.75;;;5.35;;
25559;SDS011;13450;49.374;8.584;2023-01-24T06:23:05;13.20;;;4.88;;
25559;SDS011;13450;49.374;8.584;2023-01-24T06:25:32;11.82;;;4.05;;
25559;SDS011;13450;49.374;8.584;2023-01-24T06:27:58;9.77;;;3.60;;
25559;SDS011;13450;49.374;8.584;2023-01-24T06:30:23;9.93;;;3.83;;
25559;SDS011;13450;49.374;8.584;2023-01-24T06:38:30;11.07;;;3.85;;
25559;SDS011;13450;49.374;8.584;2023-01-24T06:40:56;13.68;;;4.10;;
25559;SDS011;13450;49.374;8.584;2023-01-24T06:43:24;10.77;;;3.95;;
25559;SDS011;13450;49.374;8.584;2023-01-24T06:45:52;10.60;;;4.10;;
25559;SDS011;13450;49.374;8.584;2023-01-24T06:48:17;8.88;;;3.55;;
25559;SDS011;13450;49.374;8.584;2023-01-24T06:50:43;8.85;;;3.58;;
25559;SDS011;13450;49.374;8.584;2023-01-24T06:53:09;12.35;;;3.72;;
25559;SDS011;13450;49.374;8.584;2023-01-24T06:55:39;12.63;;;4.25;;
25559;SDS011;13450;49.374;8.584;2023-01-24T06:58:04;12.05;;;3.97;;
25559;SDS011;13450;49.374;8.584;2023-01-24T07:00:29;11.32;;;4.15;;
25559;SDS011;13450;49.374;8.584;2023-01-24T07:03:02;13.30;;;3.95;;
25559;SDS011;13450;49.374;8.584;2023-01-24T07:05:33;12.50;;;3.90;;
25559;SDS011;13450;49.374;8.584;2023-01-24T07:07:59;12.57;;;4.53;;
25559;SDS011;13450;49.374;8.584;2023-01-24T07:10:28;12.27;;;5.22;;
25559;SDS011;13450;49.374;8.584;2023-01-24T07:12:56;11.80;;;4.78;;
25559;SDS011;13450;49.374;8.584;2023-01-24T07:15:21;16.65;;;4.82;;
25559;SDS011;13450;49.374;8.584;2023-01-24T07:17:47;12.00;;;4.32;;
25559;SDS011;13450;49.374;8.584;2023-01-24T07:20:12;10.20;;;4.35;;
25559;SDS011;13450;49.374;8.584;2023-01-24T07:22:41;13.70;;;4.63;;
25559;SDS011;13450;49.374;8.584;2023-01-24T07:27:39;12.00;;;4.00;;
25559;SDS011;13450;49.374;8.584;2023-01-24T07:30:07;10.15;;;3.88;;
25559;SDS011;13450;49.374;8.584;2023-01-24T07:32:33;9.10;;;3.70;;
25559;SDS011;13450;49.374;8.584;2023-01-24T07:34:59;10.40;;;3.75;;
25559;SDS011;13450;49.374;8.584;2023-01-24T07:37:24;12.35;;;3.80;;
25559;SDS011;13450;49.374;8.584;2023-01-24T07:39:49;15.48;;;4.63;;
25559;SDS011;13450;49.374;8.584;2023-01-24T07:42:15;11.48;;;4.75;;
25559;SDS011;13450;49.374;8.584;2023-01-24T07:44:40;11.80;;;3.97;;
25559;SDS011;13450;49.374;8.584;2023-01-24T07:47:05;12.10;;;3.83;;
25559;SDS011;13450;49.374;8.584;2023-01-24T07:49:33;13.45;;;4.40;;
25559;SDS011;13450;49.374;8.584;2023-01-24T07:51:58;11.40;;;4.25;;
25559;SDS011;13450;49.374;8.584;2023-01-24T07:54:23;12.18;;;4.53;;
25559;SDS011;13450;49.374;8.584;2023-01-24T07:56:49;12.70;;;4.53;;
25559;SDS011;13450;49.374;8.584;2023-01-24T07:59:14;11.98;;;4.60;;
25559;SDS011;13450;49.374;8.584;2023-01-24T08:01:39;10.68;;;3.80;;
25559;SDS011;13450;49.374;8.584;2023-01-24T08:04:05;11.50;;;4.13;;
25559;SDS011;13450;49.374;8.584;2023-01-24T08:06:31;11.73;;;4.45;;
25559;SDS011;13450;49.374;8.584;2023-01-24T08:08:56;12.70;;;4.57;;
25559;SDS011;13450;49.374;8.584;2023-01-24T08:11:22;11.10;;;4.00;;
25559;SDS011;13450;49.374;8.584;2023-01-24T08:13:47;12.43;;;4.18;;
25559;SDS011;13450;49.374;8.584;2023-01-24T08:16:13;13.35;;;4.85;;
25559;SDS011;13450;49.374;8.584;2023-01-24T08:18:39;12.23;;;4.72;;
25559;SDS011;13450;49.374;8.584;2023-01-24T08:21:05;12.98;;;4.90;;
25559;SDS011;13450;49.374;8.584;2023-01-24T08:23:31;14.95;;;5.13;;
25559;SDS011;13450;49.374;8.584;2023-01-24T08:25:59;13.20;;;4.90;;
25559;SDS011;13450;49.374;8.584;2023-01-24T08:28:28;12.68;;;4.65;;
25559;SDS011;13450;49.374;8.584;2023-01-24T08:30:56;12.02;;;4.35;;
25559;SDS011;13450;49.374;8.584;2023-01-24T08:33:22;12.13;;;4.70;;
25559;SDS011;13450;49.374;8.584;2023-01-24T08:35:48;12.30;;;4.80;;
25559;SDS011;13450;49.374;8.584;2023-01-24T08:38:13;14.55;;;4.68;;
25559;SDS011;13450;49.374;8.584;2023-01-24T08:40:40;14.77;;;5.15;;
25559;SDS011;13450;49.374;8.584;2023-01-24T08:43:06;15.13;;;5.80;;
25559;SDS011;13450;49.374;8.584;2023-01-24T08:45:31;12.73;;;5.15;;
25559;SDS011;13450;49.374;8.584;2023-01-24T08:47:59;12.93;;;5.10;;
25559;SDS011;13450;49.374;8.584;2023-01-24T08:50:25;16.00;;;5.32;;
25559;SDS011;13450;49.374;8.584;2023-01-24T08:52:53;14.40;;;4.78;;
25559;SDS011;13450;49.374;8.584;2023-01-24T08:55:20;15.55;;;5.35;;
25559;SDS011;13450;49.374;8.584;2023-01-24T08:57:45;12.93;;;4.72;;
25559;SDS011;13450;49.374;8.584;2023-01-24T09:00:11;12.18;;;5.15;;
25559;SDS011;13450;49.374;8.584;2023-01-24T09:02:39;13.90;;;5.93;;
25559;SDS011;13450;49.374;8.584;2023-01-24T09:05:05;12.25;;;5.00;;
25559;SDS011;13450;49.374;8.584;2023-01-24T09:07:31;14.15;;;5.75;;
25559;SDS011;13450;49.374;8.584;2023-01-24T09:09:59;14.40;;;5.90;;
25559;SDS011;13450;49.374;8.584;2023-01-24T09:12:24;15.93;;;6.70;;
25559;SDS011;13450;49.374;8.584;2023-01-24T09:14:49;12.25;;;4.55;;
25559;SDS011;13450;49.374;8.584;2023-01-24T09:17:15;12.68;;;4.70;;
25559;SDS011;13450;49.374;8.584;2023-01-24T09:19:40;14.40;;;4.68;;
25559;SDS011;13450;49.374;8.584;2023-01-24T09:22:05;13.60;;;5.65;;
25559;SDS011;13450;49.374;8.584;2023-01-24T09:24:33;12.73;;;4.90;;
25559;SDS011;13450;49.374;8.584;2023-01-24T09:26:58;10.15;;;3.88;;
25559;SDS011;13450;49.374;8.584;2023-01-24T09:29:26;16.02;;;5.72;;
25559;SDS011;13450;49.374;8.584;2023-01-24T09:31:52;12.65;;;5.38;;
25559;SDS011;13450;49.374;8.584;2023-01-24T09:34:19;10.25;;;4.03;;
25559;SDS011;13450;49.374;8.584;2023-01-24T09:36:46;10.07;;;4.07;;
25559;SDS011;13450;49.374;8.584;2023-01-24T09:39:13;13.07;;;4.78;;
25559;SDS011;13450;49.374;8.584;2023-01-24T09:44:34;11.45;;;4.22;;
25559;SDS011;13450;49.374;8.584;2023-01-24T09:47:25;12.65;;;4.60;;
25559;SDS011;13450;49.374;8.584;2023-01-24T09:49:59;9.23;;;3.50;;
25559;SDS011;13450;49.374;8.584;2023-01-24T10:00:30;14.75;;;4.72;;
25559;SDS011;13450;49.374;8.584;2023-01-24T10:03:00;12.68;;;4.65;;
25559;SDS011;13450;49.374;8.584;2023-01-24T10:05:33;12.35;;;4.30;;
25559;SDS011;13450;49.374;8.584;2023-01-24T10:10:50;11.77;;;3.97;;
25559;SDS011;13450;49.374;8.584;2023-01-24T10:13:28;11.05;;;4.28;;
25559;SDS011;13450;49.374;8.584;2023-01-24T10:24:32;10.23;;;4.22;;
25559;SDS011;13450;49.374;8.584;2023-01-24T10:29:31;8.88;;;3.90;;
25559;SDS011;13450;49.374;8.584;2023-01-24T10:37:26;9.18;;;3.47;;
25559;SDS011;13450;49.374;8.584;2023-01-24T10:39:59;11.85;;;3.80;;
25559;SDS011;13450;49.374;8.584;2023-01-24T10:44:57;8.45;;;3.53;;
25559;SDS011;13450;49.374;8.584;2023-01-24T10:50:13;9.20;;;3.53;;
25559;SDS011;13450;49.374;8.584;2023-01-24T10:52:40;11.25;;;4.03;;
25559;SDS011;13450;49.374;8.584;2023-01-24T10:58:01;11.70;;;3.83;;
25559;SDS011;13450;49.374;8.584;2023-01-24T11:00:43;9.88;;;3.67;;
25559;SDS011;13450;49.374;8.584;2023-01-24T11:03:16;10.32;;;3.90;;
25559;SDS011;13450;49.374;8.584;2023-01-24T11:05:47;12.20;;;3.72;;
25559;SDS011;13450;49.374;8.584;2023-01-24T11:08:16;8.75;;;3.30;;
25559;SDS011;13450;49.374;8.584;2023-01-24T11:10:50;10.13;;;3.85;;
25559;SDS011;13450;49.374;8.584;2023-01-24T11:13:28;9.45;;;3.80;;
25559;SDS011;13450;49.374;8.584;2023-01-24T11:15:59;10.18;;;4.35;;
25559;SDS011;13450;49.374;8.584;2023-01-24T11:18:30;11.02;;;4.35;;
25559;SDS011;13450;49.374;8.584;2023-01-24T11:21:09;12.18;;;4.57;;
25559;SDS011;13450;49.374;8.584;2023-01-24T11:23:37;12.45;;;4.40;;
25559;SDS011;13450;49.374;8.584;2023-01-24T11:26:05;9.88;;;4.03;;
25559;SDS011;13450;49.374;8.584;2023-01-24T11:28:43;12.32;;;4.18;;
25559;SDS011;13450;49.374;8.584;2023-01-24T11:31:22;12.55;;;4.50;;
25559;SDS011;13450;49.374;8.584;2023-01-24T11:42:20;10.88;;;3.75;;
25559;SDS011;13450;49.374;8.584;2023-01-24T11:47:32;12.40;;;4.45;;
25559;SDS011;13450;49.374;8.584;2023-01-24T12:08:45;10.57;;;3.78;;
25559;SDS011;13450;49.374;8.584;2023-01-24T12:11:28;13.23;;;4.88;;
25559;SDS011;13450;49.374;8.584;2023-01-24T12:14:01;16.83;;;5.35;;
25559;SDS011;13450;49.374;8.584;2023-01-24T12:16:47;9.57;;;3.55;;
25559;SDS011;13450;49.374;8.584;2023-01-24T12:19:38;9.27;;;3.30;;
25559;SDS011;13450;49.374;8.584;2023-01-24T12:22:16;12.68;;;5.03;;
25559;SDS011;13450;49.374;8.584;2023-01-24T12:24:46;13.45;;;4.80;;
25559;SDS011;13450;49.374;8.584;2023-01-24T12:27:18;12.55;;;4.75;;
25559;SDS011;13450;49.374;8.584;2023-01-24T12:29:48;11.13;;;4.82;;
25559;SDS011;13450;49.374;8.584;2023-01-24T12:38:20;14.07;;;4.78;;
25559;SDS011;13450;49.374;8.584;2023-01-24T12:40:55;13.45;;;5.53;;
25559;SDS011;13450;49.374;8.584;2023-01-24T12:43:34;14.95;;;7.25;;
25559;SDS011;13450;49.374;8.584;2023-01-24T12:46:15;14.68;;;6.15;;
25559;SDS011;13450;49.374;8.584;2023-01-24T12:51:32;11.95;;;5.60;;
25559;SDS011;13450;49.374;8.584;2023-01-24T12:54:25;16.77;;;7.55;;
25559;SDS011;13450;49.374;8.584;2023-01-24T12:56:59;15.57;;;5.65;;
25559;SDS011;13450;49.374;8.584;2023-01-24T12:59:36;43.47;;;14.93;;
25559;SDS011;13450;49.374;8.584;2023-01-24T13:13:32;13.35;;;5.40;;
25559;SDS011;13450;49.374;8.584;2023-01-24T13:18:49;14.10;;;5.45;;
25559;SDS011;13450;49.374;8.584;2023-01-24T13:24:37;14.48;;;6.10;;
25559;SDS011;13450;49.374;8.584;2023-01-24T13:27:20;14.18;;;5.50;;
25559;SDS011;13450;49.374;8.584;2023-01-24T13:32:18;17.00;;;8.63;;
25559;SDS011;13450;49.374;8.584;2023-01-24T13:34:55;14.95;;;7.10;;
25559;SDS011;13450;49.374;8.584;2023-01-24T13:37:30;15.20;;;8.20;;
25559;SDS011;13450;49.374;8.584;2023-01-24T13:42:32;13.43;;;5.30;;
25559;SDS011;13450;49.374;8.584;2023-01-24T13:47:54;9.63;;;4.20;;
25559;SDS011;13450;49.374;8.584;2023-01-24T13:50:24;10.68;;;5.30;;
25559;SDS011;13450;49.374;8.584;2023-01-24T13:52:51;10.48;;;4.35;;
25559;SDS011;13450;49.374;8.584;2023-01-24T13:57:44;12.60;;;4.32;;
25559;SDS011;13450;49.374;8.584;2023-01-24T14:08:01;12.20;;;5.68;;
25559;SDS011;13450;49.374;8.584;2023-01-24T14:10:38;12.05;;;5.18;;
25559;SDS011;13450;49.374;8.584;2023-01-24T14:24:34;12.60;;;4.53;;
25559;SDS011;13450;49.374;8.584;2023-01-24T14:32:39;14.85;;;4.80;;
25559;SDS011;13450;49.374;8.584;2023-01-24T14:35:20;12.07;;;4.18;;
25559;SDS011;13450;49.374;8.584;2023-01-24T14:37:47;12.45;;;4.55;;
25559;SDS011;13450;49.374;8.584;2023-01-24T14:43:01;12.57;;;4.20;;
25559;SDS011;13450;49.374;8.584;2023-01-24T14:45:28;11.77;;;4.25;;
25559;SDS011;13450;49.374;8.584;2023-01-24T14:47:56;10.90;;;4.00;;
25559;SDS011;13450;49.374;8.584;2023-01-24T14:50:27;11.70;;;4.78;;
25559;SDS011;13450;49.374;8.584;2023-01-24T14:53:00;11.15;;;4.88;;
25559;SDS011;13450;49.374;8.584;2023-01-24T14:57:52;12.63;;;4.47;;
25559;SDS011;13450;49.374;8.584;2023-01-24T15:00:18;13.05;;;5.90;;
25559;SDS011;13450;49.374;8.584;2023-01-24T15:02:58;16.13;;;5.50;;
25559;SDS011;13450;49.374;8.584;2023-01-24T15:08:01;15.40;;;4.68;;
25559;SDS011;13450;49.374;8.584;2023-01-24T15:10:33;12.40;;;4.45;;
25559;SDS011;13450;49.374;8.584;2023-01-24T15:13:01;15.27;;;5.90;;
25559;SDS011;13450;49.374;8.584;2023-01-24T15:15:28;13.95;;;5.15;;
25559;SDS011;13450;49.374;8.584;2023-01-24T15:18:01;10.90;;;5.17;;
25559;SDS011;13450;49.374;8.584;2023-01-24T15:20:29;12.43;;;4.60;;
25559;SDS011;13450;49.374;8.584;2023-01-24T15:22:57;10.95;;;4.32;;
25559;SDS011;13450;49.374;8.584;2023-01-24T15:27:54;13.73;;;5.07;;
25559;SDS011;13450;49.374;8.584;2023-01-24T15:30:26;11.15;;;5.05;;
25559;SDS011;13450;49.374;8.584;2023-01-24T15:37:46;11.70;;;5.40;;
25559;SDS011;13450;49.374;8.584;2023-01-24T15:40:23;13.85;;;5.53;;
25559;SDS011;13450;49.374;8.584;2023-01-24T15:42:49;15.38;;;5.60;;
25559;SDS011;13450;49.374;8.584;2023-01-24T15:45:35;13.63;;;5.05;;
25559;SDS011;13450;49.374;8.584;2023-01-24T15:48:15;12.13;;;4.97;;
25559;SDS011;13450;49.374;8.584;2023-01-24T15:50:54;11.18;;;4.95;;
25559;SDS011;13450;49.374;8.584;2023-01-24T15:53:39;11.63;;;4.57;;
25559;SDS011;13450;49.374;8.584;2023-01-24T15:56:09;12.38;;;4.63;;
25559;SDS011;13450;49.374;8.584;2023-01-24T15:58:36;13.15;;;4.53;;
25559;SDS011;13450;49.374;8.584;2023-01-24T16:01:02;11.05;;;4.38;;
25559;SDS011;13450;49.374;8.584;2023-01-24T16:03:29;14.15;;;4.70;;
25559;SDS011;13450;49.374;8.584;2023-01-24T16:05:54;12.18;;;4.60;;
25559;SDS011;13450;49.374;8.584;2023-01-24T16:08:20;14.02;;;5.13;;
25559;SDS011;13450;49.374;8.584;2023-01-24T16:13:31;9.88;;;4.53;;
25559;SDS011;13450;49.374;8.584;2023-01-24T16:16:00;12.13;;;5.07;;
25559;SDS011;13450;49.374;8.584;2023-01-24T16:18:28;12.77;;;5.35;;
25559;SDS011;13450;49.374;8.584;2023-01-24T16:20:56;10.70;;;4.43;;
25559;SDS011;13450;49.374;8.584;2023-01-24T16:23:22;13.20;;;4.82;;
25559;SDS011;13450;49.374;8.584;2023-01-24T16:25:47;12.30;;;4.47;;
25559;SDS011;13450;49.374;8.584;2023-01-24T16:28:17;11.65;;;4.78;;
25559;SDS011;13450;49.374;8.584;2023-01-24T16:30:48;11.85;;;4.55;;
25559;SDS011;13450;49.374;8.584;2023-01-24T16:33:14;11.13;;;4.43;;
25559;SDS011;13450;49.374;8.584;2023-01-24T16:35:41;14.25;;;4.80;;
25559;SDS011;13450;49.374;8.584;2023-01-24T16:38:07;12.15;;;4.68;;
25559;SDS011;13450;49.374;8.584;2023-01-24T16:40:34;11.40;;;4.68;;
25559;SDS011;13450;49.374;8.584;2023-01-24T16:42:59;12.30;;;5.05;;
25559;SDS011;13450;49.374;8.584;2023-01-24T16:45:31;13.35;;;5.20;;
25559;SDS011;13450;49.374;8.584;2023-01-24T16:47:57;26.73;;;10.57;;
25559;SDS011;13450;49.374;8.584;2023-01-24T16:50:22;24.17;;;8.40;;
25559;SDS011;13450;49.374;8.584;2023-01-24T16:52:47;43.97;;;14.18;;
25559;SDS011;13450;49.374;8.584;2023-01-24T16:55:13;35.17;;;13.40;;
25559;SDS011;13450;49.374;8.584;2023-01-24T16:57:38;18.15;;;6.63;;
25559;SDS011;13450;49.374;8.584;2023-01-24T17:00:04;13.07;;;4.95;;
25559;SDS011;13450;49.374;8.584;2023-01-24T17:02:36;15.63;;;5.45;;
25559;SDS011;13450;49.374;8.584;2023-01-24T17:05:01;16.15;;;5.88;;
25559;SDS011;13450;49.374;8.584;2023-01-24T17:07:27;13.75;;;5.10;;
25559;SDS011;13450;49.374;8.584;2023-01-24T17:09:52;13.57;;;5.03;;
25559;SDS011;13450;49.374;8.584;2023-01-24T17:12:17;13.45;;;5.15;;
25559;SDS011;13450;49.374;8.584;2023-01-24T17:14:43;14.23;;;6.40;;
25559;SDS011;13450;49.374;8.584;2023-01-24T17:17:08;14.25;;;5.40;;
25559;SDS011;13450;49.374;8.584;2023-01-24T17:19:33;12.77;;;4.72;;
25559;SDS011;13450;49.374;8.584;2023-01-24T17:21:59;11.75;;;5.65;;
25559;SDS011;13450;49.374;8.584;2023-01-24T17:24:25;12.38;;;4.68;;
25559;SDS011;13450;49.374;8.584;2023-01-24T17:26:55;10.70;;;4.32;;
25559;SDS011;13450;49.374;8.584;2023-01-24T17:29:20;11.63;;;4.80;;
25559;SDS011;13450;49.374;8.584;2023-01-24T17:31:52;14.43;;;5.07;;
25559;SDS011;13450;49.374;8.584;2023-01-24T17:34:19;12.82;;;4.72;;
25559;SDS011;13450;49.374;8.584;2023-01-24T17:36:44;13.48;;;5.22;;
25559;SDS011;13450;49.374;8.584;2023-01-24T17:39:10;11.60;;;5.38;;